Time;durP1;ratioP1;P1;durP2;ratioP2;P2;SDS_P1;SDS_P2;PMS_P1;PMS_P2;Temp;Humidity;BMP_temperature;BMP_pressure;BME280_temperature;BME280_humidity;BME280_pressure;Samples;Min_cycle;Max_cycle;Signal;HPM_P1;HPM_P2
2022/01/02 00:01:05;;;;;;;2.53;1.30;;;17.60;67.10;;;;;;5049894;28;20148;-73
2022/01/02 00:03:35;;;;;;;1.98;1.33;;;16.50;66.80;;;;;;5053012;28;20084;-73
2022/01/02 00:06:05;;;;;;;2.10;1.45;;;17.50;67.00;;;;;;5053839;28;20049;-73
2022/01/02 00:08:32;;;;;;;2.55;1.40;;;18.10;67.60;;;;;;5052252;28;20088;-73
2022/01/02 00:11:00;;;;;;;2.33;1.30;;;17.30;66.90;;;;;;5052179;28;20049;-73
2022/01/02 00:13:31;;;;;;;2.38;1.60;;;17.10;62.30;;;;;;5052850;28;20156;-73
2022/01/02 00:16:03;;;;;;;2.20;1.40;;;17.20;67.20;;;;;;5050538;28;20052;-73
2022/01/02 00:18:30;;;;;;;1.60;1.30;;;;;;;;;;5052624;28;20114;-73
2022/01/02 00:21:00;;;;;;;2.08;1.40;;;17.50;66.30;;;;;;5053407;28;20139;-73
2022/01/02 00:23:31;;;;;;;2.60;1.50;;;17.60;67.30;;;;;;5053595;28;20049;-73
2022/01/02 00:26:03;;;;;;;2.05;1.38;;;16.80;66.60;;;;;;5052276;28;20504;-73
2022/01/02 00:28:30;;;;;;;1.50;1.40;;;17.30;67.20;;;;;;5052543;28;20106;-73
2022/01/02 00:30:57;;;;;;;1.40;1.13;;;;;;;;;;5052119;28;20508;-73
2022/01/02 00:33:24;;;;;;;1.65;1.45;;;17.60;67.30;;;;;;5051672;28;20155;-73
2022/01/02 00:35:50;;;;;;;2.28;1.63;;;16.50;66.40;;;;;;5052045;28;20063;-73
2022/01/02 00:38:20;;;;;;;2.05;1.35;;;17.40;67.00;;;;;;5052062;28;20075;-73
2022/01/02 00:40:49;;;;;;;1.92;1.40;;;17.50;64.50;;;;;;5051978;28;20057;-73
2022/01/02 00:43:21;;;;;;;1.38;1.27;;;18.20;67.30;;;;;;5053339;28;20128;-73
2022/01/02 00:45:48;;;;;;;1.85;1.17;;;17.40;66.90;;;;;;5051896;28;20080;-73
2022/01/02 00:48:16;;;;;;;1.88;1.30;;;17.60;67.00;;;;;;5049857;28;20140;-73
2022/01/02 00:50:43;;;;;;;1.92;1.30;;;18.20;67.70;;;;;;5051387;28;20457;-73
2022/01/02 00:53:10;;;;;;;2.22;1.50;;;18.20;67.60;;;;;;5052053;28;20139;-73
2022/01/02 00:55:39;;;;;;;2.03;1.40;;;17.40;60.60;;;;;;5051565;28;20084;-73
2022/01/02 00:58:06;;;;;;;1.88;1.40;;;17.40;60.60;;;;;;5051346;28;20179;-72
2022/01/02 01:00:34;;;;;;;1.88;1.15;;;17.20;66.80;;;;;;5052668;28;20052;-73
2022/01/02 01:03:01;;;;;;;2.38;1.60;;;;;;;;;;5052716;28;20172;-73
2022/01/02 01:05:30;;;;;;;2.42;1.40;;;17.40;61.60;;;;;;5049929;28;20132;-73
2022/01/02 01:07:59;;;;;;;2.33;1.30;;;17.60;67.20;;;;;;5051331;28;20132;-73
2022/01/02 01:10:29;;;;;;;2.55;1.60;;;17.00;61.60;;;;;;5051161;28;20136;-70
2022/01/02 01:12:59;;;;;;;2.45;1.55;;;17.40;60.60;;;;;;5051305;28;20053;-70
2022/01/02 01:15:28;;;;;;;2.83;1.52;;;17.30;64.80;;;;;;5051261;28;20087;-70
2022/01/02 01:17:56;;;;;;;2.08;1.40;;;17.60;67.00;;;;;;5051585;28;20064;-70
2022/01/02 01:20:22;;;;;;;1.80;1.40;;;17.30;67.10;;;;;;5050099;28;20482;-70
2022/01/02 01:22:49;;;;;;;1.85;1.30;;;17.60;67.00;;;;;;5050925;28;20502;-70
2022/01/02 01:25:17;;;;;;;1.85;1.33;;;;;;;;;;5051055;28;20471;-70
2022/01/02 01:27:44;;;;;;;1.60;1.20;;;;;;;;;;5050704;28;20101;-70
2022/01/02 01:30:13;;;;;;;1.80;1.42;;;16.40;66.40;;;;;;5050963;28;20152;-70
2022/01/02 01:32:40;;;;;;;1.48;1.30;;;;;;;;;;5051195;28;20536;-70
2022/01/02 01:35:08;;;;;;;1.92;1.38;;;17.40;67.10;;;;;;5050852;28;20155;-70
2022/01/02 01:37:35;;;;;;;1.58;1.33;;;;;;;;;;5050884;28;20681;-70
2022/01/02 01:40:01;;;;;;;1.45;1.23;;;17.60;67.30;;;;;;5049061;28;20053;-70
2022/01/02 01:42:35;;;;;;;2.10;1.40;;;17.20;67.00;;;;;;5050868;28;20080;-70
2022/01/02 01:47:46;;;;;;;1.40;1.20;;;17.40;64.90;;;;;;5049576;28;20080;-70
2022/01/02 01:50:13;;;;;;;1.70;1.40;;;17.50;65.70;;;;;;5050885;28;20155;-70
2022/01/02 01:52:40;;;;;;;2.05;1.33;;;17.70;67.00;;;;;;5050842;28;20140;-70
2022/01/02 01:55:07;;;;;;;2.00;1.38;;;17.40;60.60;;;;;;5050721;28;20140;-70
2022/01/02 01:57:34;;;;;;;2.13;1.48;;;18.20;67.50;;;;;;5048487;28;20049;-71
2022/01/02 02:00:01;;;;;;;1.45;1.27;;;;;;;;;;5041552;28;20132;-70
2022/01/02 02:02:28;;;;;;;2.28;1.83;;;16.60;66.70;;;;;;5030675;28;20128;-71
2022/01/02 02:04:56;;;;;;;2.40;1.40;;;18.00;67.40;;;;;;5030723;28;20117;-70
2022/01/02 02:07:28;;;;;;;1.67;1.30;;;;;;;;;;5030478;28;20118;-69
2022/01/02 02:10:05;;;;;;;2.25;1.50;;;17.80;67.10;;;;;;5030779;28;20542;-70
2022/01/02 02:12:31;;;;;;;2.10;1.40;;;17.50;61.40;;;;;;5030682;28;20140;-71
2022/01/02 02:14:58;;;;;;;2.05;1.40;;;;;;;;;;5031989;28;20132;-71
2022/01/02 02:17:25;;;;;;;2.38;1.48;;;;;;;;;;5030444;28;20477;-71
2022/01/02 02:19:58;;;;;;;1.90;1.40;;;17.30;67.00;;;;;;5030833;28;20156;-71
2022/01/02 02:22:26;;;;;;;2.05;1.38;;;17.50;67.20;;;;;;5030386;28;20057;-71
2022/01/02 02:24:53;;;;;;;1.60;1.30;;;;;;;;;;5030587;28;20057;-70
2022/01/02 02:27:22;;;;;;;2.15;1.60;;;16.40;61.80;;;;;;5031901;28;20056;-70
2022/01/02 02:29:49;;;;;;;1.63;1.30;;;17.50;67.10;;;;;;5030317;28;20473;-71
2022/01/02 02:32:16;;;;;;;2.25;1.40;;;;;;;;;;5034050;28;20150;-70
2022/01/02 02:34:44;;;;;;;1.80;1.40;;;17.40;66.80;;;;;;5034778;28;20136;-71
2022/01/02 02:37:12;;;;;;;1.60;1.20;;;17.60;66.80;;;;;;5033996;28;20053;-71
2022/01/02 02:39:38;;;;;;;1.80;1.30;;;16.60;64.50;;;;;;5034193;28;20128;-70
2022/01/02 02:42:13;;;;;;;1.50;1.40;;;17.50;66.80;;;;;;5034395;28;20503;-71
2022/01/02 02:44:40;;;;;;;1.80;1.42;;;;;;;;;;5034478;28;20107;-70
2022/01/02 02:50:07;;;;;;;1.50;1.30;;;17.60;67.20;;;;;;4957631;28;20046;-71
2022/01/02 02:52:41;;;;;;;1.55;1.20;;;17.80;66.10;;;;;;4957891;28;20050;-71
2022/01/02 02:55:09;;;;;;;2.35;1.58;;;;;;;;;;4993920;28;20061;-70
2022/01/02 02:57:38;;;;;;;2.53;1.48;;;17.70;67.00;;;;;;5034136;28;20140;-71
2022/01/02 03:00:06;;;;;;;1.40;1.30;;;18.00;67.10;;;;;;5033974;28;20082;-71
2022/01/02 03:02:33;;;;;;;1.85;1.27;;;;;;;;;;5033987;28;20585;-71
2022/01/02 03:04:59;;;;;;;1.85;1.30;;;16.70;62.80;;;;;;5035127;28;20484;-71
2022/01/02 03:07:27;;;;;;;2.00;1.40;;;;;;;;;;5035036;28;20060;-71
2022/01/02 03:09:58;;;;;;;3.20;1.30;;;18.20;67.40;;;;;;5033889;28;20156;-70
2022/01/02 03:12:25;;;;;;;1.80;1.30;;;;;;;;;;5034991;28;20080;-70
2022/01/02 03:14:52;;;;;;;1.83;1.33;;;17.50;67.00;;;;;;5033692;28;20046;-70
2022/01/02 03:17:19;;;;;;;1.58;1.20;;;;;;;;;;5033330;28;20148;-70
2022/01/02 03:19:46;;;;;;;1.73;1.00;;;17.60;67.00;;;;;;5034679;28;20051;-71
2022/01/02 03:22:14;;;;;;;1.88;1.50;;;16.50;62.70;;;;;;5034867;28;20132;-71
2022/01/02 03:24:41;;;;;;;1.88;1.38;;;17.60;66.80;;;;;;5034626;28;20713;-70
2022/01/02 03:27:09;;;;;;;1.40;1.30;;;17.90;67.20;;;;;;5033188;28;20128;-71
2022/01/02 03:29:35;;;;;;;2.10;1.40;;;17.40;62.50;;;;;;5034522;28;20132;-70
2022/01/02 03:32:02;;;;;;;1.75;1.23;;;17.90;63.00;;;;;;5034412;28;20056;-71
2022/01/02 03:34:29;;;;;;;1.70;1.20;;;17.60;67.00;;;;;;5034302;28;20136;-71
2022/01/02 03:36:56;;;;;;;1.83;1.40;;;;;;;;;;5033026;28;20161;-70
2022/01/02 03:39:23;;;;;;;1.88;1.30;;;;;;;;;;5034520;28;20140;-70
2022/01/02 03:41:50;;;;;;;1.83;1.60;;;16.50;61.10;;;;;;5033459;28;20136;-70
2022/01/02 03:44:18;;;;;;;1.75;1.40;;;16.90;66.70;;;;;;5033538;28;20137;-71
2022/01/02 03:46:44;;;;;;;1.60;1.30;;;17.60;66.80;;;;;;5032624;28;20483;-70
2022/01/02 03:49:13;;;;;;;2.10;1.40;;;16.70;66.30;;;;;;5033223;28;20088;-71
2022/01/02 03:51:40;;;;;;;2.20;1.23;;;;;;;;;;5033057;28;20142;-70
2022/01/02 03:54:07;;;;;;;2.05;1.30;;;17.60;67.00;;;;;;5032850;28;20081;-70
2022/01/02 03:56:34;;;;;;;2.45;1.70;;;16.40;66.30;;;;;;5033975;28;20132;-71
2022/01/02 03:59:00;;;;;;;1.75;1.38;;;17.10;66.80;;;;;;5032930;28;20461;-70
2022/01/02 04:01:29;;;;;;;1.83;1.40;;;17.00;66.80;;;;;;5032892;28;20140;-70
2022/01/02 04:03:55;;;;;;;1.83;1.40;;;17.70;66.80;;;;;;5032840;28;20141;-70
2022/01/02 04:06:22;;;;;;;1.77;1.45;;;;;;;;;;5032714;28;20575;-71
2022/01/02 04:08:50;;;;;;;1.58;1.48;;;;;;;;;;5032710;28;20450;-71
2022/01/02 04:11:16;;;;;;;1.42;1.25;;;17.60;63.40;;;;;;5032696;28;20479;-71
2022/01/02 04:13:43;;;;;;;2.47;1.40;;;17.60;63.80;;;;;;5033879;28;20136;-71
2022/01/02 04:16:10;;;;;;;2.10;1.58;;;16.50;66.20;;;;;;5032532;28;20139;-71
2022/01/02 04:18:38;;;;;;;1.83;1.40;;;17.60;61.40;;;;;;5032626;28;20053;-71
2022/01/02 04:21:05;;;;;;;1.90;1.30;;;16.90;66.30;;;;;;5032436;28;20128;-71
2022/01/02 04:23:32;;;;;;;2.10;1.50;;;16.50;66.10;;;;;;5032782;28;20148;-71
2022/01/02 04:25:58;;;;;;;1.50;1.20;;;16.50;66.40;;;;;;5032116;28;20613;-71
2022/01/02 04:28:25;;;;;;;3.25;1.50;;;17.60;64.20;;;;;;5032507;28;20060;-71
2022/01/02 04:30:52;;;;;;;2.70;1.50;;;17.10;66.70;;;;;;5034684;28;20514;-71
2022/01/02 04:33:18;;;;;;;1.80;1.27;;;17.40;66.90;;;;;;5032465;28;20140;-71
2022/01/02 04:35:46;;;;;;;2.20;1.40;;;17.60;64.00;;;;;;5031909;28;20100;-71
2022/01/02 04:38:14;;;;;;;2.08;1.67;;;;;;;;;;5032361;28;20489;-71
2022/01/02 04:40:41;;;;;;;1.67;1.42;;;;;;;;;;5032141;28;20065;-71
2022/01/02 04:43:08;;;;;;;1.75;1.25;;;17.50;66.80;;;;;;5032250;28;20083;-71
2022/01/02 04:45:35;;;;;;;1.50;1.30;;;;;;;;;;5032894;28;20115;-71
2022/01/02 04:48:02;;;;;;;1.42;1.20;;;16.50;66.40;;;;;;5040014;28;20049;-71
2022/01/02 04:50:29;;;;;;;2.65;1.80;;;16.70;66.40;;;;;;5051583;28;20085;-71
2022/01/02 04:52:57;;;;;;;2.05;1.40;;;17.50;64.90;;;;;;5051620;28;20491;-70
2022/01/02 04:55:24;;;;;;;1.70;1.55;;;16.60;64.80;;;;;;5051528;28;20057;-71
2022/01/02 04:57:51;;;;;;;2.95;1.70;;;17.40;66.60;;;;;;5051964;28;20118;-71
2022/01/02 05:00:18;;;;;;;2.28;1.35;;;17.30;66.50;;;;;;5051629;28;20132;-70
2022/01/02 05:02:45;;;;;;;1.98;1.40;;;17.60;66.90;;;;;;5050026;28;20441;-71
2022/01/02 05:05:12;;;;;;;1.77;1.27;;;17.50;64.10;;;;;;5052664;28;20047;-70
2022/01/02 05:07:39;;;;;;;2.63;1.30;;;16.50;60.80;;;;;;5051213;28;20473;-71
2022/01/02 05:10:07;;;;;;;1.65;1.20;;;17.50;60.50;;;;;;5050790;28;20056;-70
2022/01/02 05:12:34;;;;;;;2.90;1.38;;;17.70;61.70;;;;;;5051264;28;20132;-71
2022/01/02 05:15:01;;;;;;;2.97;1.50;;;17.60;66.60;;;;;;5051239;28;20056;-71
2022/01/02 05:17:28;;;;;;;1.48;1.17;;;;;;;;;;5051091;28;20135;-71
2022/01/02 05:19:55;;;;;;;2.30;1.38;;;17.40;66.50;;;;;;5044586;28;20144;-71
2022/01/02 05:22:22;;;;;;;2.58;1.40;;;;;;;;;;5031545;28;20160;-71
2022/01/02 05:24:49;;;;;;;1.90;1.40;;;17.60;66.50;;;;;;5031459;28;20053;-71
2022/01/02 05:27:17;;;;;;;2.53;1.42;;;16.60;66.10;;;;;;5030967;28;20134;-71
2022/01/02 05:29:44;;;;;;;2.40;1.40;;;17.40;66.60;;;;;;5031314;28;20665;-70
2022/01/02 05:32:10;;;;;;;2.22;1.40;;;18.00;63.10;;;;;;5031153;28;20049;-71
2022/01/02 05:34:37;;;;;;;3.20;1.30;;;17.50;61.60;;;;;;5038560;28;20139;-70
2022/01/02 05:37:04;;;;;;;2.28;1.60;;;17.80;64.30;;;;;;5049363;28;20132;-69
2022/01/02 05:39:31;;;;;;;2.45;1.33;;;;;;;;;;5050975;28;20143;-68
2022/01/02 05:41:58;;;;;;;1.67;1.20;;;17.60;64.40;;;;;;5046242;28;20092;-72
2022/01/02 05:44:26;;;;;;;2.13;1.40;;;17.40;60.40;;;;;;5040336;28;20132;-72
2022/01/02 05:46:53;;;;;;;1.35;1.25;;;17.00;62.10;;;;;;5042813;28;20136;-72
2022/01/02 05:49:20;;;;;;;3.05;1.58;;;17.50;66.60;;;;;;5050849;28;20466;-72
2022/01/02 05:51:47;;;;;;;2.25;1.40;;;;;;;;;;5050712;28;20134;-72
2022/01/02 05:54:14;;;;;;;2.05;1.38;;;17.40;66.80;;;;;;5051716;28;20049;-72
2022/01/02 05:56:41;;;;;;;2.13;1.20;;;;;;;;;;5051682;28;20129;-72
2022/01/02 05:59:08;;;;;;;2.90;1.50;;;16.70;66.20;;;;;;5050633;28;20140;-72
2022/01/02 06:01:36;;;;;;;2.10;1.20;;;17.50;60.50;;;;;;5050407;28;20537;-72
2022/01/02 06:04:03;;;;;;;1.67;1.30;;;;;;;;;;5050573;28;20143;-72
2022/01/02 06:06:30;;;;;;;2.38;1.50;;;17.50;66.80;;;;;;5050098;28;20549;-72
2022/01/02 06:08:57;;;;;;;2.05;1.30;;;18.30;67.10;;;;;;5050696;28;20088;-72
2022/01/02 06:11:23;;;;;;;2.28;1.35;;;17.40;60.70;;;;;;5050272;28;20124;-72
2022/01/02 06:13:50;;;;;;;2.13;1.35;;;17.60;66.70;;;;;;5050465;28;20080;-72
2022/01/02 06:16:17;;;;;;;2.13;1.40;;;18.40;67.30;;;;;;5049966;28;20136;-72
2022/01/02 06:18:48;;;;;;;2.45;1.30;;;17.70;67.00;;;;;;5051395;28;20059;-72
2022/01/02 06:21:15;;;;;;;2.05;1.40;;;17.70;66.70;;;;;;5050534;28;20067;-72
2022/01/02 06:23:42;;;;;;;2.42;1.30;;;;;;;;;;5050570;28;20137;-72
2022/01/02 06:26:09;;;;;;;2.25;1.40;;;17.50;66.80;;;;;;5050376;28;20549;-72
2022/01/02 06:28:35;;;;;;;2.22;1.55;;;17.80;67.00;;;;;;5050669;28;20128;-72
2022/01/02 06:31:02;;;;;;;2.20;1.30;;;17.60;65.60;;;;;;5049944;28;20131;-70
2022/01/02 06:33:29;;;;;;;1.83;1.48;;;17.30;66.80;;;;;;5049576;28;20049;-72
2022/01/02 06:35:57;;;;;;;2.33;1.30;;;17.60;67.00;;;;;;5050035;28;20132;-72
2022/01/02 06:38:24;;;;;;;2.35;1.30;;;17.60;66.60;;;;;;5050631;28;20694;-72
2022/01/02 06:40:50;;;;;;;3.58;1.50;;;17.60;63.20;;;;;;5050313;28;20088;-72
2022/01/02 06:43:17;;;;;;;2.80;1.50;;;17.40;66.80;;;;;;5050345;28;20136;-72
2022/01/02 06:45:44;;;;;;;2.63;1.33;;;16.70;66.50;;;;;;5049525;28;20089;-72
2022/01/02 06:48:11;;;;;;;1.65;1.30;;;17.60;64.20;;;;;;5050072;28;20145;-72
2022/01/02 06:50:39;;;;;;;2.10;1.48;;;17.60;67.00;;;;;;5050196;28;20140;-72
2022/01/02 06:53:07;;;;;;;1.35;1.25;;;17.50;66.90;;;;;;5049960;28;20502;-71
2022/01/02 06:55:34;;;;;;;2.42;1.40;;;17.60;66.60;;;;;;5050045;28;20573;-72
2022/01/02 06:58:01;;;;;;;2.15;1.55;;;;;;;;;;5050003;28;20083;-72
2022/01/02 07:00:27;;;;;;;1.73;1.20;;;17.60;66.90;;;;;;5050330;28;20081;-68
2022/01/02 07:02:54;;;;;;;2.20;1.20;;;17.50;66.70;;;;;;5050064;28;20513;-68
2022/01/02 07:05:21;;;;;;;2.58;1.50;;;18.40;67.30;;;;;;5050995;28;20051;-68
2022/01/02 07:07:48;;;;;;;1.80;1.40;;;18.00;67.00;;;;;;5049903;28;20152;-68
2022/01/02 07:10:16;;;;;;;2.45;1.30;;;16.60;66.50;;;;;;5050780;28;20045;-68
2022/01/02 07:12:43;;;;;;;1.65;1.50;;;17.70;66.90;;;;;;5050856;28;20045;-69
2022/01/02 07:15:10;;;;;;;3.40;1.58;;;18.20;67.50;;;;;;5049980;28;20136;-68
2022/01/02 07:17:37;;;;;;;2.17;1.35;;;;;;;;;;5050792;28;20132;-69
2022/01/02 07:20:05;;;;;;;1.70;1.30;;;16.90;66.80;;;;;;5054032;28;20123;-68
2022/01/02 07:22:31;;;;;;;2.10;1.40;;;17.50;66.80;;;;;;5054577;28;20120;-68
2022/01/02 07:24:59;;;;;;;2.35;1.60;;;17.40;67.00;;;;;;5053404;28;20464;-68
2022/01/02 07:27:27;;;;;;;2.67;1.30;;;17.70;62.00;;;;;;5051401;28;20124;-68
2022/01/02 07:29:55;;;;;;;1.65;1.20;;;17.70;61.50;;;;;;5054013;28;20128;-68
2022/01/02 07:32:22;;;;;;;2.10;1.25;;;;;;;;;;5053100;28;20041;-68
2022/01/02 07:34:49;;;;;;;2.50;1.42;;;17.50;67.00;;;;;;5053275;28;20059;-68
2022/01/02 07:37:16;;;;;;;2.70;1.52;;;;;;;;;;5053788;28;20120;-69
2022/01/02 07:39:43;;;;;;;3.25;1.83;;;17.40;67.00;;;;;;5053035;28;20045;-68
2022/01/02 07:42:09;;;;;;;3.28;1.52;;;17.60;67.00;;;;;;5052514;28;20127;-68
2022/01/02 07:44:38;;;;;;;2.45;1.40;;;17.60;66.00;;;;;;5052969;28;20049;-68
2022/01/02 07:47:06;;;;;;;1.77;1.27;;;17.60;66.80;;;;;;5050213;28;20072;-68
2022/01/02 07:49:32;;;;;;;1.77;1.33;;;18.10;66.40;;;;;;5052892;28;20136;-68
2022/01/02 07:51:59;;;;;;;1.70;1.20;;;17.50;67.00;;;;;;5052177;28;20059;-68
2022/01/02 07:54:26;;;;;;;1.88;1.30;;;16.70;66.60;;;;;;5053943;28;20052;-68
2022/01/02 07:56:52;;;;;;;2.40;1.48;;;17.60;64.30;;;;;;5052430;28;20081;-70
2022/01/02 07:59:19;;;;;;;1.50;1.20;;;18.00;67.20;;;;;;5053799;28;20785;-70
2022/01/02 08:01:47;;;;;;;1.85;1.33;;;17.40;67.00;;;;;;5053542;28;20120;-70
2022/01/02 08:04:14;;;;;;;2.30;1.50;;;17.70;66.80;;;;;;5053753;28;20072;-70
2022/01/02 08:06:41;;;;;;;2.40;1.45;;;17.60;63.50;;;;;;5052426;28;20135;-70
2022/01/02 08:09:07;;;;;;;2.10;1.55;;;17.50;66.80;;;;;;5053942;28;20186;-71
2022/01/02 08:11:35;;;;;;;2.50;1.52;;;;;;;;;;5052444;28;20053;-72
2022/01/02 08:14:01;;;;;;;3.50;1.65;;;17.60;67.10;;;;;;5053774;28;20052;-71
2022/01/02 08:16:28;;;;;;;2.70;1.40;;;17.60;66.80;;;;;;5053910;28;20399;-71
2022/01/02 08:18:56;;;;;;;3.42;1.50;;;17.50;61.50;;;;;;5052625;28;20124;-72
2022/01/02 08:21:23;;;;;;;2.58;1.73;;;17.60;61.50;;;;;;5053730;28;20131;-72
2022/01/02 08:23:49;;;;;;;3.97;1.58;;;17.50;67.00;;;;;;5053894;28;20143;-71
2022/01/02 08:26:18;;;;;;;2.40;1.35;;;17.20;66.90;;;;;;5053139;28;20139;-71
2022/01/02 08:28:44;;;;;;;1.70;1.33;;;16.70;66.40;;;;;;5053614;28;20044;-71
2022/01/02 08:31:11;;;;;;;3.22;1.40;;;17.50;61.10;;;;;;5052118;28;20127;-71
2022/01/02 08:33:38;;;;;;;2.90;1.60;;;16.60;66.40;;;;;;5052226;28;20052;-71
2022/01/02 08:36:06;;;;;;;2.33;1.40;;;16.80;66.80;;;;;;5052231;28;20049;-71
2022/01/02 08:38:33;;;;;;;2.78;1.50;;;17.70;67.30;;;;;;5053481;28;20056;-71
2022/01/02 08:41:00;;;;;;;5.47;1.50;;;;;;;;;;5051958;28;20124;-71
2022/01/02 08:43:27;;;;;;;2.00;1.52;;;17.40;66.90;;;;;;5052172;28;20132;-71
2022/01/02 08:45:54;;;;;;;3.05;1.48;;;18.20;63.30;;;;;;5052159;28;20139;-71
2022/01/02 08:48:20;;;;;;;2.50;1.45;;;17.80;67.30;;;;;;5051986;28;20135;-71
2022/01/02 08:50:47;;;;;;;2.40;1.40;;;17.50;67.10;;;;;;5052258;28;20703;-71
2022/01/02 08:53:15;;;;;;;4.57;1.50;;;17.50;63.00;;;;;;5052037;28;20127;-71
2022/01/02 08:55:42;;;;;;;1.63;1.40;;;17.70;62.70;;;;;;5052466;28;20128;-73
2022/01/02 08:58:09;;;;;;;3.40;1.70;;;17.40;67.00;;;;;;5051997;28;20585;-75
2022/01/02 09:00:36;;;;;;;2.75;1.70;;;17.60;67.10;;;;;;5051646;28;20057;-75
2022/01/02 09:03:03;;;;;;;3.10;1.92;;;17.50;67.10;;;;;;5051803;28;20053;-75
2022/01/02 09:05:30;;;;;;;2.60;1.35;;;;;;;;;;5051700;28;20123;-75
2022/01/02 09:07:57;;;;;;;1.85;1.52;;;17.50;67.00;;;;;;5050911;28;20084;-74
2022/01/02 09:10:26;;;;;;;2.30;1.73;;;17.60;66.90;;;;;;5050218;28;20052;-75
2022/01/02 09:12:52;;;;;;;5.72;1.58;;;17.40;66.80;;;;;;5050652;28;20120;-75
2022/01/02 09:15:19;;;;;;;2.53;1.45;;;18.20;67.40;;;;;;5051006;28;20136;-75
2022/01/02 09:17:46;;;;;;;2.35;1.35;;;16.70;66.70;;;;;;5050719;28;20135;-75
2022/01/02 09:20:14;;;;;;;3.45;1.70;;;18.20;65.50;;;;;;5051168;28;20053;-74
2022/01/02 09:22:41;;;;;;;2.03;1.50;;;16.80;66.80;;;;;;5050400;28;20053;-75
2022/01/02 09:25:09;;;;;;;4.70;1.50;;;17.50;67.00;;;;;;5049782;28;20128;-75
2022/01/02 09:27:37;;;;;;;2.78;1.65;;;17.30;67.20;;;;;;5050804;28;20060;-75
2022/01/02 09:30:05;;;;;;;2.30;1.50;;;16.80;66.70;;;;;;5050873;28;20087;-75
2022/01/02 09:32:34;;;;;;;4.70;2.00;;;17.70;67.20;;;;;;5050729;28;20068;-75
2022/01/02 09:35:01;;;;;;;3.13;1.77;;;;;;;;;;5048303;28;20132;-74
2022/01/02 09:37:28;;;;;;;2.53;1.75;;;17.40;67.50;;;;;;5050747;28;20131;-75
2022/01/02 09:39:55;;;;;;;2.97;1.60;;;17.40;67.30;;;;;;5050390;28;20072;-74
2022/01/02 09:42:22;;;;;;;4.97;1.55;;;16.90;67.10;;;;;;5050000;28;20132;-73
2022/01/02 09:44:50;;;;;;;2.40;1.63;;;18.30;67.80;;;;;;5050387;28;20128;-73
2022/01/02 09:47:20;;;;;;;2.50;1.52;;;17.50;67.40;;;;;;5047520;28;20132;-74
2022/01/02 09:49:46;;;;;;;3.20;1.70;;;17.40;67.60;;;;;;5050273;28;20057;-73
2022/01/02 09:52:13;;;;;;;3.35;1.90;;;;;;;;;;5050751;28;20132;-73
2022/01/02 09:54:40;;;;;;;3.38;1.55;;;17.50;67.70;;;;;;5050733;28;20139;-74
2022/01/02 09:57:07;;;;;;;2.55;1.50;;;17.40;67.40;;;;;;5050988;28;20049;-75
2022/01/02 09:59:34;;;;;;;2.40;1.60;;;17.40;67.60;;;;;;5049592;28;20131;-75
2022/01/02 10:02:03;;;;;;;2.33;1.70;;;17.30;67.60;;;;;;5049412;28;20139;-75
2022/01/02 10:04:38;;;;;;;2.13;1.67;;;17.30;67.60;;;;;;5050110;28;20055;-74
2022/01/02 10:07:05;;;;;;;2.10;1.42;;;17.40;67.50;;;;;;5047774;28;20049;-74
2022/01/02 10:09:33;;;;;;;2.50;1.58;;;17.80;63.90;;;;;;5050148;28;20127;-75
2022/01/02 10:12:28;;;;;;;3.67;1.58;;;17.80;67.90;;;;;;5049924;28;20127;-74
2022/01/02 10:15:18;;;;;;;3.17;1.65;;;17.10;67.40;;;;;;5036880;28;20131;-74
2022/01/02 10:17:59;;;;;;;3.25;1.67;;;17.30;67.50;;;;;;5048533;28;20452;-74
2022/01/02 10:20:26;;;;;;;2.97;1.45;;;17.10;61.30;;;;;;5050709;28;20143;-74
2022/01/02 10:23:14;;;;;;;2.03;1.60;;;17.30;67.80;;;;;;5050522;28;20136;-74
2022/01/02 10:25:42;;;;;;;2.75;1.60;;;17.90;63.60;;;;;;5050199;28;20055;-74
2022/01/02 10:28:25;;;;;;;3.55;1.67;;;17.20;67.70;;;;;;5050872;28;20106;-73
2022/01/02 10:30:53;;;;;;;2.95;1.52;;;17.10;63.90;;;;;;5050696;28;20406;-74
2022/01/02 10:33:21;;;;;;;2.72;1.70;;;16.90;67.60;;;;;;5050286;28;20063;-74
2022/01/02 10:35:48;;;;;;;3.90;1.77;;;17.20;67.70;;;;;;5050431;28;20061;-74
2022/01/02 10:38:16;;;;;;;2.35;1.40;;;16.40;64.50;;;;;;5050347;28;20131;-74
2022/01/02 10:40:43;;;;;;;2.95;1.55;;;;;;;;;;5050037;28;20053;-74
2022/01/02 10:43:10;;;;;;;3.15;1.58;;;17.20;67.70;;;;;;5049516;28;20387;-74
2022/01/02 10:45:39;;;;;;;2.15;1.40;;;17.30;67.50;;;;;;5049802;28;20462;-74
2022/01/02 10:48:07;;;;;;;2.72;1.70;;;16.60;67.40;;;;;;5050059;28;20055;-74
2022/01/02 10:50:35;;;;;;;2.95;1.40;;;17.20;67.70;;;;;;5066673;28;20057;-75
2022/01/02 10:53:11;;;;;;;2.70;1.60;;;17.10;67.60;;;;;;5051604;28;20045;-75
2022/01/02 10:55:38;;;;;;;3.03;1.63;;;;;;;;;;5052392;28;20053;-75
2022/01/02 10:58:06;;;;;;;2.38;1.50;;;17.30;67.40;;;;;;5053708;28;20131;-76
2022/01/02 11:00:33;;;;;;;1.98;1.38;;;17.00;66.00;;;;;;5054841;28;20464;-75
2022/01/02 11:03:00;;;;;;;4.43;1.70;;;16.40;67.30;;;;;;5053471;28;20076;-76
2022/01/02 11:05:29;;;;;;;2.10;1.50;;;17.00;67.70;;;;;;5052973;28;20098;-75
2022/01/02 11:07:59;;;;;;;2.50;1.40;;;16.90;67.60;;;;;;5052910;28;20064;-75
2022/01/02 11:10:27;;;;;;;2.53;1.50;;;17.00;67.40;;;;;;5053454;28;20144;-75
2022/01/02 11:12:54;;;;;;;3.00;1.90;;;16.30;67.40;;;;;;5051029;28;20050;-76
2022/01/02 11:15:22;;;;;;;5.20;2.22;;;17.00;61.30;;;;;;5052533;28;20557;-77
2022/01/02 11:17:49;;;;;;;3.30;1.70;;;;;;;;;;5050495;28;20056;-75
2022/01/02 11:20:20;;;;;;;3.80;1.70;;;17.10;67.50;;;;;;5042712;28;20048;-74
2022/01/02 11:22:49;;;;;;;3.58;1.63;;;16.90;67.50;;;;;;5036398;28;20132;-74
2022/01/02 11:25:21;;;;;;;2.88;1.60;;;17.00;67.50;;;;;;5038065;28;20088;-74
2022/01/02 11:27:52;;;;;;;3.55;1.42;;;17.00;67.80;;;;;;5053532;28;20141;-73
2022/01/02 11:30:41;;;;;;;3.47;1.60;;;17.00;61.30;;;;;;5053805;28;20398;-73
2022/01/02 11:33:12;;;;;;;2.63;1.65;;;17.00;63.00;;;;;;5052362;28;20186;-73
2022/01/02 11:35:40;;;;;;;2.58;1.60;;;17.20;67.70;;;;;;5052517;28;20051;-73
2022/01/02 11:38:07;;;;;;;2.13;1.50;;;;;;;;;;5053187;28;20135;-73
2022/01/02 11:40:45;;;;;;;2.33;1.60;;;17.00;61.30;;;;;;5051474;28;20136;-73
2022/01/02 11:43:46;;;;;;;1.83;1.40;;;17.00;61.40;;;;;;5048551;28;20088;-73
2022/01/02 11:46:17;;;;;;;3.22;1.70;;;17.80;68.40;;;;;;5050880;28;20144;-73
2022/01/02 11:48:45;;;;;;;2.35;1.60;;;16.40;67.70;;;;;;5051672;28;20048;-73
2022/01/02 11:51:12;;;;;;;3.67;1.60;;;17.00;67.90;;;;;;5052452;28;20048;-73
2022/01/02 11:53:38;;;;;;;2.05;1.65;;;16.40;64.20;;;;;;5051350;28;20112;-73
2022/01/02 11:56:07;;;;;;;3.33;1.63;;;17.10;67.90;;;;;;5047671;28;20139;-73
2022/01/02 11:58:50;;;;;;;2.22;1.50;;;16.40;67.50;;;;;;5051042;28;20139;-73
2022/01/02 12:01:47;;;;;;;2.70;1.65;;;16.40;67.30;;;;;;5051967;28;20080;-73
2022/01/02 12:04:13;;;;;;;2.88;1.73;;;17.00;68.00;;;;;;5050213;28;20048;-73
2022/01/02 12:06:42;;;;;;;1.95;1.55;;;16.20;67.50;;;;;;5052728;28;20053;-73
2022/01/02 12:09:34;;;;;;;2.83;1.58;;;16.70;66.30;;;;;;5053848;28;20094;-73
2022/01/02 12:12:03;;;;;;;2.40;1.58;;;16.90;61.40;;;;;;5034636;28;20141;-73
2022/01/02 12:14:30;;;;;;;2.17;1.60;;;17.00;67.80;;;;;;5033252;28;20071;-73
2022/01/02 12:17:07;;;;;;;4.38;1.60;;;17.10;67.90;;;;;;5067994;28;20131;-73
2022/01/02 12:19:59;;;;;;;4.10;2.00;;;16.50;67.40;;;;;;5049278;28;20115;-73
2022/01/02 12:22:39;;;;;;;2.95;1.60;;;17.00;67.90;;;;;;5049765;28;20049;-73
2022/01/02 12:25:12;;;;;;;2.55;1.80;;;17.00;68.10;;;;;;5050931;28;20084;-72
2022/01/02 12:27:46;;;;;;;2.85;1.33;;;17.70;68.40;;;;;;5044087;28;20049;-72
2022/01/02 12:30:12;;;;;;;1.92;1.50;;;17.00;68.00;;;;;;5048766;28;20052;-72
2022/01/02 12:32:39;;;;;;;2.97;1.63;;;17.00;61.50;;;;;;5049396;28;20132;-73
2022/01/02 12:35:06;;;;;;;3.65;1.67;;;16.80;67.70;;;;;;5052136;28;20048;-72
2022/01/02 12:37:33;;;;;;;3.00;1.50;;;17.00;67.80;;;;;;5052015;28;20136;-72
2022/01/02 12:40:00;;;;;;;3.72;1.75;;;16.90;65.10;;;;;;5045023;28;20132;-72
2022/01/02 12:42:27;;;;;;;3.35;1.98;;;17.00;68.10;;;;;;5045947;28;20098;-72
2022/01/02 12:44:55;;;;;;;2.42;1.60;;;16.90;61.50;;;;;;5050619;28;20055;-72
2022/01/02 12:47:25;;;;;;;2.45;1.60;;;;;;;;;;5049468;28;20132;-73
2022/01/02 12:49:52;;;;;;;3.88;1.80;;;;;;;;;;5051673;28;20405;-73
2022/01/02 12:52:19;;;;;;;3.50;1.50;;;16.90;67.60;;;;;;5050650;28;20132;-74
2022/01/02 12:54:46;;;;;;;2.75;1.60;;;16.90;63.40;;;;;;5051028;28;20080;-74
2022/01/02 12:57:14;;;;;;;2.33;1.42;;;17.10;67.90;;;;;;5049757;28;20051;-75
2022/01/02 12:59:42;;;;;;;2.20;1.60;;;17.00;68.10;;;;;;5050974;28;20132;-75
2022/01/02 13:02:11;;;;;;;2.35;1.70;;;17.00;67.90;;;;;;5051482;28;20129;-75
2022/01/02 13:04:40;;;;;;;2.10;1.52;;;16.90;61.50;;;;;;5051544;28;20132;-74
2022/01/02 13:07:12;;;;;;;3.35;1.80;;;17.00;67.70;;;;;;5050965;28;20135;-75
2022/01/02 13:09:40;;;;;;;3.35;1.77;;;16.20;67.30;;;;;;5051683;28;20057;-75
2022/01/02 13:12:10;;;;;;;3.85;1.88;;;17.40;68.20;;;;;;5051180;28;20052;-75
2022/01/02 13:14:42;;;;;;;2.15;1.65;;;16.20;64.60;;;;;;5051554;28;20124;-75